createdAt,value
2023-03-15T00:01:33.317Z,44.30
2023-03-15T00:04:26.235Z,44.89
2023-03-15T00:07:16.512Z,45.06
2023-03-15T00:10:03.589Z,44.53
2023-03-15T00:12:59.782Z,44.19
2023-03-15T00:15:49.984Z,42.34
2023-03-15T00:18:34.671Z,41.99
2023-03-15T00:21:23.046Z,44.29
2023-03-15T00:24:12.835Z,43.78
2023-03-15T00:27:04.496Z,43.17
2023-03-15T00:29:54.387Z,42.12
2023-03-15T00:32:46.420Z,41.13
2023-03-15T00:35:38.758Z,41.47
2023-03-15T00:38:28.139Z,39.88
2023-03-15T00:41:18.519Z,40.43
2023-03-15T00:44:07.560Z,40.76
2023-03-15T00:47:00.101Z,41.90
2023-03-15T00:49:45.496Z,39.68
2023-03-15T00:52:41.416Z,39.78
2023-03-15T00:55:32.109Z,39.64
2023-03-15T00:58:24.545Z,39.95
2023-03-15T01:01:15.014Z,40.35
2023-03-15T01:04:09.064Z,40.12
2023-03-15T01:06:57.601Z,39.20
2023-03-15T01:09:53.724Z,40.53
2023-03-15T01:12:44.404Z,39.79
2023-03-15T01:15:37.009Z,39.93
2023-03-15T01:18:24.405Z,40.25
2023-03-15T01:21:18.707Z,40.53
2023-03-15T01:24:09.273Z,39.89
2023-03-15T01:26:56.135Z,40.82
2023-03-15T01:29:47.076Z,40.78
2023-03-15T01:32:39.887Z,41.70
2023-03-15T01:35:28.035Z,39.64
2023-03-15T01:38:22.403Z,41.12
2023-03-15T01:41:22.042Z,39.62
2023-03-15T01:44:07.280Z,40.16
2023-03-15T01:46:57.166Z,39.60
2023-03-15T01:49:40.704Z,39.33
2023-03-15T01:52:37.609Z,40.42
2023-03-15T01:55:32.691Z,39.97
2023-03-15T01:58:22.707Z,41.08
2023-03-15T02:01:12.849Z,41.35
2023-03-15T02:04:10.779Z,42.34
2023-03-15T02:07:02.649Z,43.30
2023-03-15T02:09:54.637Z,43.01
2023-03-15T02:12:48.776Z,42.58
2023-03-15T02:15:39.197Z,42.55
2023-03-15T02:18:29.785Z,43.85
2023-03-15T02:21:33.376Z,43.04
2023-03-15T02:24:36.741Z,42.11
2023-03-15T02:27:34.656Z,45.07
2023-03-15T02:30:29.281Z,44.54
2023-03-15T02:33:27.173Z,44.24
2023-03-15T02:36:23.626Z,45.40
2023-03-15T02:39:19.210Z,44.41
2023-03-15T02:42:13.145Z,45.35
2023-03-15T02:45:01.655Z,44.58
2023-03-15T02:47:52.926Z,44.39
2023-03-15T02:50:40.730Z,45.50
2023-03-15T02:53:28.167Z,47.99
2023-03-15T02:56:22.659Z,46.59
2023-03-15T02:59:17.420Z,46.72
2023-03-15T03:02:03.684Z,46.43
2023-03-15T03:04:53.094Z,47.96
2023-03-15T03:07:37.987Z,47.33
2023-03-15T03:10:27.300Z,48.45
2023-03-15T03:13:17.024Z,48.36
2023-03-15T03:16:06.392Z,48.65
2023-03-15T03:18:58.128Z,48.67
2023-03-15T03:21:44.888Z,48.99
2023-03-15T03:24:33.353Z,48.20
2023-03-15T03:27:24.139Z,48.49
2023-03-15T03:30:15.054Z,47.95
2023-03-15T03:33:11.411Z,48.41
2023-03-15T03:36:04.461Z,48.50
2023-03-15T03:38:50.259Z,49.02
2023-03-15T03:41:40.011Z,49.15
2023-03-15T03:44:32.335Z,48.66
2023-03-15T03:47:21.997Z,47.76
2023-03-15T03:50:14.565Z,48.08
2023-03-15T03:53:04.910Z,47.68
2023-03-15T03:55:58.472Z,47.78
2023-03-15T03:58:50.118Z,48.63
2023-03-15T04:01:42.142Z,48.82
2023-03-15T04:04:32.328Z,47.09
2023-03-15T04:07:22.223Z,47.26
2023-03-15T04:10:09.803Z,48.33
2023-03-15T04:12:54.094Z,47.93
2023-03-15T04:15:43.136Z,47.15
2023-03-15T04:18:27.820Z,49.23
2023-03-15T04:21:12.744Z,48.70
2023-03-15T04:24:01.960Z,49.19
2023-03-15T04:26:49.207Z,48.79
2023-03-15T04:29:33.358Z,49.30
2023-03-15T04:32:20.235Z,49.48
2023-03-15T04:35:04.755Z,48.97
2023-03-15T04:37:52.157Z,49.12
2023-03-15T04:40:37.877Z,49.47
2023-03-15T04:43:25.566Z,51.39
2023-03-15T04:46:15.398Z,49.82
2023-03-15T04:49:07.721Z,49.17
2023-03-15T04:51:55.081Z,48.97
2023-03-15T04:54:48.816Z,49.82
2023-03-15T04:57:38.158Z,49.96
2023-03-15T05:00:28.500Z,50.05
2023-03-15T05:03:14.014Z,49.77
2023-03-15T05:06:01.559Z,50.64
2023-03-15T05:08:50.174Z,49.53
2023-03-15T05:11:37.924Z,48.91
2023-03-15T05:14:30.913Z,50.85
2023-03-15T05:17:20.496Z,49.59
2023-03-15T05:20:12.675Z,48.63
2023-03-15T05:23:03.746Z,49.09
2023-03-15T05:25:59.832Z,48.56
2023-03-15T05:28:54.249Z,47.77
2023-03-15T05:31:44.366Z,48.49
2023-03-15T05:34:38.549Z,48.14
2023-03-15T05:37:28.010Z,48.37
2023-03-15T05:40:18.192Z,47.32
2023-03-15T05:43:06.657Z,47.01
2023-03-15T05:45:51.585Z,47.46
2023-03-15T05:48:45.152Z,48.62
2023-03-15T05:51:47.693Z,47.83
2023-03-15T05:54:38.904Z,46.49
2023-03-15T05:57:27.917Z,45.27
2023-03-15T06:00:19.781Z,44.51
2023-03-15T06:03:13.290Z,43.70
2023-03-15T06:06:13.032Z,44.57
2023-03-15T06:09:04.996Z,43.78
2023-03-15T06:11:56.948Z,40.96
2023-03-15T06:14:43.368Z,41.09
2023-03-15T06:17:34.909Z,41.54
2023-03-15T06:20:26.592Z,40.16
2023-03-15T06:23:16.660Z,35.09
2023-03-15T06:26:06.821Z,30.38
2023-03-15T06:28:56.862Z,28.25
2023-03-15T06:31:48.262Z,30.16
2023-03-15T06:34:41.185Z,32.97
2023-03-15T06:37:35.430Z,35.61
2023-03-15T06:40:26.674Z,34.18
2023-03-15T06:43:23.419Z,33.68
2023-03-15T06:46:17.968Z,34.20
2023-03-15T06:49:10.893Z,35.35
2023-03-15T06:52:05.763Z,31.35
2023-03-15T06:54:51.922Z,31.84
2023-03-15T06:57:37.659Z,34.71
2023-03-15T07:00:26.492Z,31.00
2023-03-15T07:03:13.256Z,27.47
2023-03-15T07:05:59.707Z,26.30
2023-03-15T07:08:46.099Z,24.76
2023-03-15T07:11:33.416Z,21.92
2023-03-15T07:14:24.135Z,22.09
2023-03-15T07:17:17.695Z,22.19
2023-03-15T07:20:02.027Z,22.70
2023-03-15T07:22:50.156Z,20.36
2023-03-15T07:25:48.248Z,19.22
2023-03-15T07:28:36.140Z,16.37
2023-03-15T07:31:19.837Z,17.77
2023-03-15T07:34:05.036Z,18.66
2023-03-15T07:37:00.334Z,17.84
2023-03-15T07:39:46.979Z,19.15
2023-03-15T07:42:36.263Z,20.54
2023-03-15T07:45:31.108Z,20.99
2023-03-15T07:48:24.589Z,21.31
2023-03-15T07:51:18.857Z,21.29
2023-03-15T07:54:13.466Z,18.62
2023-03-15T07:57:05.301Z,16.16
2023-03-15T07:59:56.991Z,15.18
2023-03-15T08:02:49.288Z,16.28
2023-03-15T08:05:40.444Z,16.56
2023-03-15T08:08:28.305Z,16.74
2023-03-15T08:11:18.086Z,14.17
2023-03-15T08:14:12.044Z,14.98
2023-03-15T08:17:01.931Z,16.48
2023-03-15T08:19:52.751Z,17.37
2023-03-15T08:22:40.932Z,16.02
2023-03-15T08:25:33.807Z,13.97
2023-03-15T08:28:28.407Z,14.00
2023-03-15T08:31:19.612Z,15.42
2023-03-15T08:34:07.566Z,17.67
2023-03-15T08:36:57.765Z,16.93
2023-03-15T08:39:52.941Z,14.68
2023-03-15T08:42:48.791Z,14.91
2023-03-15T08:45:59.727Z,13.68
2023-03-15T08:48:51.414Z,13.52
2023-03-15T08:51:45.099Z,14.75
2023-03-15T08:54:37.186Z,16.56
2023-03-15T08:57:30.182Z,19.08
2023-03-15T09:00:23.515Z,20.70
2023-03-15T09:03:16.053Z,19.81
2023-03-15T09:06:05.074Z,16.15
2023-03-15T09:08:59.256Z,16.00
2023-03-15T09:11:52.753Z,17.95
2023-03-15T09:14:38.493Z,19.31
2023-03-15T09:17:27.564Z,21.43
2023-03-15T09:20:22.735Z,21.87
2023-03-15T09:23:14.155Z,22.82
2023-03-15T09:26:06.321Z,22.92
2023-03-15T09:28:54.540Z,24.93
2023-03-15T09:31:46.073Z,24.76
2023-03-15T09:34:43.406Z,25.32
2023-03-15T09:37:35.230Z,25.26
2023-03-15T09:40:27.703Z,22.61
2023-03-15T09:43:46.653Z,21.11
2023-03-15T09:46:39.622Z,22.84
2023-03-15T09:49:46.454Z,24.72
2023-03-15T09:52:46.083Z,25.07
2023-03-15T09:55:37.267Z,24.62
2023-03-15T09:58:33.838Z,23.81
2023-03-15T10:01:26.641Z,25.15
2023-03-15T10:04:28.992Z,26.04
2023-03-15T10:07:23.000Z,27.19
2023-03-15T10:10:20.137Z,27.36
2023-03-15T10:13:26.900Z,28.46
2023-03-15T10:16:31.136Z,27.88
2023-03-15T10:19:30.072Z,28.60
2023-03-15T10:22:31.465Z,26.64
2023-03-15T10:25:25.646Z,25.93
2023-03-15T10:28:20.152Z,27.25
2023-03-15T10:31:21.594Z,28.39
2023-03-15T10:34:14.299Z,26.80
2023-03-15T10:37:06.174Z,27.59
2023-03-15T10:40:00.685Z,28.68
2023-03-15T10:42:50.709Z,29.47
2023-03-15T10:45:39.294Z,29.69
2023-03-15T10:48:25.025Z,29.42
2023-03-15T10:51:17.036Z,29.30
2023-03-15T10:54:03.838Z,28.88
2023-03-15T10:57:03.312Z,28.43
2023-03-15T11:00:07.256Z,29.63
2023-03-15T11:02:57.807Z,28.55
2023-03-15T11:05:51.999Z,29.96
2023-03-15T11:08:48.733Z,30.67
2023-03-15T11:11:59.259Z,30.89
2023-03-15T11:14:49.504Z,30.13
2023-03-15T11:17:48.268Z,30.21
2023-03-15T11:20:46.086Z,30.23
2023-03-15T11:23:36.535Z,30.72
2023-03-15T11:26:32.650Z,29.55
2023-03-15T11:29:26.145Z,28.97
2023-03-15T11:32:19.700Z,29.52
2023-03-15T11:35:10.502Z,29.48
2023-03-15T11:38:14.517Z,27.95
2023-03-15T11:41:03.303Z,29.22
2023-03-15T11:44:09.066Z,28.58
2023-03-15T11:47:07.288Z,28.94
2023-03-15T11:50:01.214Z,28.81
2023-03-15T11:52:52.292Z,28.06
2023-03-15T11:55:44.121Z,28.85
2023-03-15T11:58:41.005Z,28.45
2023-03-15T12:01:34.752Z,29.71
2023-03-15T12:04:48.094Z,30.61
2023-03-15T12:08:22.973Z,30.30
2023-03-15T12:11:15.975Z,30.40
2023-03-15T12:14:13.687Z,32.08
2023-03-15T12:17:31.927Z,31.41
2023-03-15T12:20:37.926Z,32.16
2023-03-15T12:23:34.402Z,32.66
2023-03-15T12:26:31.009Z,32.84
2023-03-15T12:29:27.903Z,33.27
2023-03-15T12:32:22.157Z,33.09
2023-03-15T12:35:21.413Z,34.08
2023-03-15T12:38:17.020Z,32.92
2023-03-15T12:41:12.384Z,33.41
2023-03-15T12:44:29.614Z,33.68
2023-03-15T12:47:22.221Z,32.87
2023-03-15T12:50:40.474Z,32.20
2023-03-15T12:53:46.354Z,32.71
2023-03-15T12:56:48.621Z,33.96
2023-03-15T12:59:45.363Z,34.47
2023-03-15T13:02:44.228Z,33.89
2023-03-15T13:05:39.333Z,33.42
2023-03-15T13:08:37.890Z,32.99
2023-03-15T13:11:34.289Z,33.86
2023-03-15T13:14:46.572Z,34.22
2023-03-15T13:17:47.087Z,34.25
2023-03-15T13:20:50.274Z,33.42
2023-03-15T13:23:43.730Z,33.45
2023-03-15T13:26:53.820Z,33.85
2023-03-15T13:29:46.721Z,34.05
2023-03-15T13:32:37.438Z,34.07
2023-03-15T13:35:27.457Z,33.70
2023-03-15T13:38:30.113Z,33.79
2023-03-15T13:41:31.464Z,33.50
2023-03-15T13:44:27.405Z,33.97
2023-03-15T13:47:24.418Z,34.53
2023-03-15T13:50:18.178Z,33.53
2023-03-15T13:53:02.764Z,33.30
2023-03-15T13:55:57.823Z,32.40
2023-03-15T13:58:52.795Z,32.91
2023-03-15T14:01:45.883Z,32.29
2023-03-15T14:04:42.835Z,33.28
2023-03-15T14:07:34.427Z,35.63
2023-03-15T14:10:38.578Z,35.09
2023-03-15T14:13:29.600Z,35.40
2023-03-15T14:16:53.244Z,35.62
2023-03-15T14:19:59.396Z,35.44
2023-03-15T14:22:51.271Z,35.88
2023-03-15T14:25:44.466Z,36.09
2023-03-15T14:28:35.100Z,35.69
2023-03-15T14:31:29.970Z,34.55
2023-03-15T14:34:29.466Z,36.90
2023-03-15T14:37:36.413Z,36.15
2023-03-15T14:40:22.706Z,36.81
2023-03-15T14:43:07.794Z,37.38
2023-03-15T14:45:51.665Z,36.68
2023-03-15T14:48:37.161Z,37.63
2023-03-15T14:51:23.442Z,38.85
2023-03-15T14:54:09.050Z,38.14
2023-03-15T14:56:53.101Z,38.31
2023-03-15T14:59:37.054Z,39.17
2023-03-15T15:02:21.155Z,38.92
2023-03-15T15:05:19.858Z,38.90
2023-03-15T15:08:07.343Z,39.32
2023-03-15T15:10:53.684Z,39.09
2023-03-15T15:13:38.761Z,39.76
2023-03-15T15:16:22.622Z,39.32
2023-03-15T15:19:06.795Z,39.05
2023-03-15T15:21:52.709Z,40.04
2023-03-15T15:24:37.248Z,40.45
2023-03-15T15:27:21.375Z,41.51
2023-03-15T15:30:06.048Z,41.63
2023-03-15T15:32:50.169Z,41.78
2023-03-15T15:35:35.409Z,41.32
2023-03-15T15:38:21.122Z,42.64
2023-03-15T15:41:05.292Z,42.26
2023-03-15T15:43:48.949Z,42.50
2023-03-15T15:46:32.893Z,42.21
2023-03-15T15:49:17.298Z,42.80
2023-03-15T15:52:01.276Z,43.46
2023-03-15T15:54:48.698Z,43.07
2023-03-15T15:57:33.453Z,43.71
2023-03-15T16:00:20.380Z,44.20
2023-03-15T16:03:04.723Z,44.87
2023-03-15T16:05:48.529Z,45.41
2023-03-15T16:08:35.911Z,44.81
2023-03-15T16:11:22.894Z,44.71
2023-03-15T16:14:06.711Z,45.37
2023-03-15T16:16:50.650Z,45.63
2023-03-15T16:19:34.731Z,45.62
2023-03-15T16:22:20.217Z,46.84
2023-03-15T16:25:11.737Z,46.60
2023-03-15T16:27:58.341Z,47.05
2023-03-15T16:30:44.730Z,48.16
2023-03-15T16:33:29.838Z,48.62
2023-03-15T16:36:21.595Z,48.72
2023-03-15T16:39:06.036Z,49.40
2023-03-15T16:41:52.423Z,49.75
2023-03-15T16:44:38.168Z,51.53
2023-03-15T16:47:23.068Z,53.26
2023-03-15T16:50:07.474Z,53.90
2023-03-15T16:52:54.711Z,54.97
2023-03-15T16:55:39.681Z,55.96
2023-03-15T16:58:23.493Z,56.50
2023-03-15T17:01:11.303Z,57.43
2023-03-15T17:03:56.029Z,57.80
2023-03-15T17:06:41.158Z,58.51
2023-03-15T17:09:25.978Z,60.04
2023-03-15T17:12:16.201Z,59.71
2023-03-15T17:15:01.605Z,60.34
2023-03-15T17:17:48.015Z,59.78
2023-03-15T17:20:32.812Z,59.95
2023-03-15T17:23:21.538Z,59.66
2023-03-15T17:26:06.342Z,60.92
2023-03-15T17:28:50.756Z,60.39
2023-03-15T17:31:36.322Z,60.35
2023-03-15T17:34:25.192Z,60.65
2023-03-15T17:37:10.814Z,61.31
2023-03-15T17:39:54.933Z,60.63
2023-03-15T17:42:38.625Z,62.78
2023-03-15T17:45:26.984Z,63.19
2023-03-15T17:48:11.328Z,63.88
2023-03-15T17:50:56.829Z,64.44
2023-03-15T17:53:40.548Z,64.56
2023-03-15T17:56:24.509Z,64.26
2023-03-15T17:59:08.537Z,65.67
2023-03-15T18:01:52.699Z,64.87
2023-03-15T18:04:37.504Z,65.39
2023-03-15T18:07:26.459Z,65.23
2023-03-15T18:10:12.886Z,66.13
2023-03-15T18:12:56.838Z,65.44
2023-03-15T18:15:40.649Z,66.29
2023-03-15T18:18:24.404Z,67.19
2023-03-15T18:21:13.958Z,67.30
2023-03-15T18:24:00.978Z,66.44
2023-03-15T18:26:44.695Z,66.67
2023-03-15T18:29:28.617Z,68.55
2023-03-15T18:32:12.872Z,68.15
2023-03-15T18:34:57.457Z,67.13
2023-03-15T18:37:41.396Z,67.49
2023-03-15T18:40:29.302Z,68.03
2023-03-15T18:43:16.598Z,68.62
2023-03-15T18:46:00.532Z,68.21
2023-03-15T18:48:45.576Z,70.13
2023-03-15T18:51:29.759Z,69.80
2023-03-15T18:54:13.989Z,69.74
2023-03-15T18:56:59.599Z,69.12
2023-03-15T18:59:43.359Z,69.47
2023-03-15T19:02:31.041Z,68.42
2023-03-15T19:05:16.173Z,69.27
2023-03-15T19:08:02.406Z,68.56
2023-03-15T19:10:47.570Z,67.73
2023-03-15T19:13:34.521Z,68.66
2023-03-15T19:16:18.844Z,68.80
2023-03-15T19:19:02.896Z,68.78
2023-03-15T19:21:46.785Z,68.79
2023-03-15T19:24:33.483Z,68.39
2023-03-15T19:27:18.192Z,68.61
2023-03-15T19:30:09.192Z,69.74
2023-03-15T19:32:53.210Z,69.58
2023-03-15T19:35:37.145Z,67.88
2023-03-15T19:38:21.759Z,69.57
2023-03-15T19:41:06.239Z,70.91
2023-03-15T19:43:50.188Z,70.66
2023-03-15T19:46:35.860Z,70.16
2023-03-15T19:49:20.281Z,70.82
2023-03-15T19:52:07.610Z,71.73
2023-03-15T19:54:52.843Z,71.39
2023-03-15T19:57:37.044Z,71.51
2023-03-15T20:00:24.038Z,71.24
2023-03-15T20:03:09.626Z,71.56
2023-03-15T20:05:53.592Z,71.34
2023-03-15T20:08:37.928Z,71.08
2023-03-15T20:11:26.289Z,71.40
2023-03-15T20:14:10.185Z,71.74
2023-03-15T20:16:54.025Z,72.08
2023-03-15T20:19:39.772Z,71.06
2023-03-15T20:22:23.440Z,71.14
2023-03-15T20:25:10.125Z,72.10
2023-03-15T20:28:04.323Z,72.03
2023-03-15T20:30:47.802Z,72.78
2023-03-15T20:33:32.006Z,73.24
2023-03-15T20:36:17.784Z,73.29
2023-03-15T20:39:01.892Z,74.22
2023-03-15T20:41:45.997Z,73.46
2023-03-15T20:44:32.445Z,73.65
2023-03-15T20:47:17.575Z,74.18
2023-03-15T20:50:01.839Z,73.25
2023-03-15T20:52:47.542Z,75.52
2023-03-15T20:55:32.030Z,76.28
2023-03-15T20:58:16.145Z,76.44
2023-03-15T21:01:09.003Z,76.26
2023-03-15T21:03:55.024Z,76.81
2023-03-15T21:06:39.177Z,77.63
2023-03-15T21:09:24.652Z,78.13
2023-03-15T21:12:09.234Z,79.21
2023-03-15T21:14:53.638Z,80.49
2023-03-15T21:17:37.868Z,81.58
2023-03-15T21:20:21.804Z,81.91
2023-03-15T21:23:05.962Z,82.61
2023-03-15T21:25:55.916Z,82.70
2023-03-15T21:28:40.076Z,82.89
2023-03-15T21:31:23.472Z,82.63
2023-03-15T21:34:06.924Z,82.57
2023-03-15T21:36:50.272Z,82.92
2023-03-15T21:39:34.272Z,84.14
2023-03-15T21:42:19.981Z,84.18
2023-03-15T21:45:09.193Z,84.48
2023-03-15T21:47:53.218Z,85.24
2023-03-15T21:50:37.127Z,85.42
2023-03-15T21:53:21.146Z,83.27
2023-03-15T21:56:07.711Z,81.42
2023-03-15T21:58:53.963Z,82.22
2023-03-15T22:01:38.973Z,83.38
2023-03-15T22:04:24.835Z,83.55
2023-03-15T22:07:08.620Z,82.31
2023-03-15T22:09:53.455Z,82.45
2023-03-15T22:12:37.865Z,82.37
2023-03-15T22:15:23.695Z,81.47
2023-03-15T22:18:53.084Z,81.98
2023-03-15T22:21:36.997Z,81.18
2023-03-15T22:24:22.262Z,82.38
2023-03-15T22:27:06.293Z,81.85
2023-03-15T22:29:50.670Z,82.61
2023-03-15T22:32:38.625Z,82.01
2023-03-15T22:35:23.192Z,81.30
2023-03-15T22:38:10.527Z,80.07
2023-03-15T22:41:04.484Z,80.17
2023-03-15T22:43:48.572Z,80.75
2023-03-15T22:46:34.955Z,79.65
2023-03-15T22:49:20.512Z,79.57
2023-03-15T22:52:04.161Z,80.54
2023-03-15T22:54:48.822Z,81.91
2023-03-15T22:57:32.699Z,79.73
2023-03-15T23:00:19.979Z,80.99
2023-03-15T23:03:04.481Z,80.50
2023-03-15T23:05:49.994Z,80.56
2023-03-15T23:08:34.200Z,79.06
2023-03-15T23:11:18.168Z,80.71
2023-03-15T23:14:02.149Z,79.06
2023-03-15T23:16:46.212Z,79.57
2023-03-15T23:19:30.267Z,79.45
2023-03-15T23:22:16.161Z,79.86
2023-03-15T23:25:00.144Z,78.64
2023-03-15T23:27:44.537Z,79.36
2023-03-15T23:30:35.485Z,78.59
2023-03-15T23:33:20.160Z,79.59
2023-03-15T23:36:04.771Z,79.46
2023-03-15T23:38:50.846Z,78.66
2023-03-15T23:41:36.105Z,79.20
2023-03-15T23:44:19.862Z,79.01
2023-03-15T23:47:06.082Z,79.53
2023-03-15T23:49:50.526Z,80.28
2023-03-15T23:52:34.533Z,80.39
2023-03-15T23:55:20.749Z,80.08
2023-03-15T23:58:07.211Z,79.64
